Time;durP1;ratioP1;P1;durP2;ratioP2;P2;SDS_P1;SDS_P2;PMS_P1;PMS_P2;Temp;Humidity;BMP_temperature;BMP_pressure;BME280_temperature;BME280_humidity;BME280_pressure;Samples;Min_cycle;Max_cycle;Signal;HPM_P1;HPM_P2
2023/08/03 00:00:48;;;;;;;3.35;3.05;;;21.90;92.30;;;;;;5023237;28;20030;-79
2023/08/03 00:03:13;;;;;;;2.67;2.47;;;21.90;92.30;;;;;;5022187;28;20068;-79
2023/08/03 00:05:39;;;;;;;2.95;2.60;;;21.80;92.30;;;;;;5021714;28;20026;-79
2023/08/03 00:08:04;;;;;;;3.92;2.95;;;21.80;92.30;;;;;;5022289;28;20036;-78
2023/08/03 00:10:31;;;;;;;3.08;2.78;;;21.80;92.30;;;;;;5023300;28;20100;-79
2023/08/03 00:12:57;;;;;;;2.72;2.53;;;21.80;92.30;;;;;;5024102;28;20048;-79
2023/08/03 00:15:23;;;;;;;3.10;2.78;;;21.80;92.30;;;;;;5006440;28;20026;-78
2023/08/03 00:17:48;;;;;;;2.83;2.63;;;21.70;92.40;;;;;;5023469;28;20149;-79
2023/08/03 00:20:14;;;;;;;3.30;3.00;;;21.70;92.40;;;;;;5005853;28;20038;-79
2023/08/03 00:22:40;;;;;;;3.15;2.80;;;21.70;92.40;;;;;;5023401;28;20052;-79
2023/08/03 00:25:05;;;;;;;4.38;2.97;;;21.70;92.50;;;;;;5004989;28;20030;-79
2023/08/03 00:27:31;;;;;;;3.30;3.00;;;21.70;92.50;;;;;;5022483;28;20061;-79
2023/08/03 00:29:57;;;;;;;3.33;3.03;;;21.70;92.50;;;;;;5005714;28;20026;-78
2023/08/03 00:32:23;;;;;;;3.33;3.00;;;21.70;92.60;;;;;;5018411;28;20085;-78
2023/08/03 00:34:48;;;;;;;3.45;3.15;;;21.60;92.60;;;;;;5019771;28;20034;-79
2023/08/03 00:37:14;;;;;;;3.30;3.00;;;21.60;92.70;;;;;;5002927;28;20372;-79
2023/08/03 00:39:40;;;;;;;3.22;2.78;;;21.60;92.80;;;;;;5018253;28;20494;-79
2023/08/03 00:42:06;;;;;;;3.83;3.42;;;21.60;92.90;;;;;;5001264;28;20030;-79
2023/08/03 00:44:32;;;;;;;3.25;2.85;;;21.60;92.90;;;;;;5018160;28;20497;-78
2023/08/03 00:46:58;;;;;;;3.05;2.75;;;21.60;92.90;;;;;;5018389;28;20026;-78
2023/08/03 00:49:28;;;;;;;3.40;2.90;;;21.60;92.80;;;;;;5017388;28;20359;-78
2023/08/03 00:51:59;;;;;;;3.22;2.92;;;21.60;92.70;;;;;;5001939;28;20049;-78
2023/08/03 00:54:25;;;;;;;3.17;2.88;;;21.60;92.60;;;;;;5003176;28;20036;-79
2023/08/03 00:56:51;;;;;;;3.15;2.80;;;21.60;92.80;;;;;;5017757;28;20042;-79
2023/08/03 00:59:17;;;;;;;4.22;3.10;;;21.60;92.70;;;;;;5001219;28;20030;-79
2023/08/03 01:01:43;;;;;;;3.33;3.03;;;21.60;92.70;;;;;;4999725;28;20054;-79
2023/08/03 01:04:10;;;;;;;3.58;3.10;;;21.60;92.80;;;;;;5017496;28;20125;-78
2023/08/03 01:06:35;;;;;;;5.20;3.35;;;21.60;92.60;;;;;;5002113;28;20041;-79
2023/08/03 01:09:05;;;;;;;3.90;3.42;;;21.60;92.60;;;;;;5002419;28;20046;-79
2023/08/03 01:11:31;;;;;;;3.20;2.90;;;21.50;92.50;;;;;;5002104;28;20062;-79
2023/08/03 01:13:57;;;;;;;3.03;2.70;;;21.50;92.50;;;;;;5003192;28;20037;-79
2023/08/03 01:16:24;;;;;;;3.20;2.90;;;21.60;92.60;;;;;;5018726;28;20030;-78
2023/08/03 01:18:50;;;;;;;3.95;3.47;;;21.50;92.60;;;;;;5002889;28;20031;-79
2023/08/03 01:21:18;;;;;;;3.70;3.20;;;21.60;92.70;;;;;;5017443;28;20030;-79
2023/08/03 01:23:44;;;;;;;4.22;3.80;;;21.50;92.70;;;;;;5002603;28;20475;-78
2023/08/03 01:26:10;;;;;;;4.95;3.20;;;21.50;92.70;;;;;;5018042;28;20026;-79
2023/08/03 01:28:36;;;;;;;4.70;3.92;;;21.50;92.80;;;;;;5002723;28;20053;-79
2023/08/03 01:31:02;;;;;;;4.60;4.05;;;21.50;92.90;;;;;;5001968;28;20085;-79
2023/08/03 01:33:28;;;;;;;4.32;3.92;;;21.50;93.00;;;;;;5022694;28;20037;-78
2023/08/03 01:35:54;;;;;;;4.38;3.97;;;21.50;93.10;;;;;;5022857;28;20022;-79
2023/08/03 01:38:19;;;;;;;4.50;4.10;;;21.50;93.10;;;;;;5004190;28;20038;-79
2023/08/03 01:40:45;;;;;;;5.00;4.28;;;21.50;93.10;;;;;;5021221;28;20033;-79
2023/08/03 01:43:11;;;;;;;6.50;4.72;;;21.40;93.10;;;;;;5002742;28;20030;-79
2023/08/03 01:45:36;;;;;;;6.90;4.55;;;21.40;93.10;;;;;;5020007;28;20018;-78
2023/08/03 01:48:02;;;;;;;7.30;4.65;;;21.40;93.00;;;;;;5020099;28;20029;-78
2023/08/03 01:50:28;;;;;;;4.05;3.65;;;21.40;93.10;;;;;;5019259;28;20057;-79
2023/08/03 01:52:54;;;;;;;5.47;4.13;;;21.40;93.10;;;;;;5022738;28;20025;-79
2023/08/03 01:55:20;;;;;;;5.35;3.92;;;21.30;93.10;;;;;;5023874;28;20037;-78
2023/08/03 01:57:45;;;;;;;4.97;4.00;;;21.30;93.20;;;;;;5023476;28;20124;-79
2023/08/03 02:00:12;;;;;;;7.50;4.30;;;21.30;93.30;;;;;;5025019;28;20026;-78
2023/08/03 02:02:37;;;;;;;4.10;3.70;;;21.30;93.40;;;;;;5025309;28;20401;-79
2023/08/03 02:05:03;;;;;;;4.57;4.15;;;21.30;93.40;;;;;;5026243;28;20029;-78
2023/08/03 02:07:45;;;;;;;4.88;4.38;;;21.30;93.50;;;;;;5025189;28;20021;-79
2023/08/03 02:10:11;;;;;;;4.45;3.85;;;21.30;93.30;;;;;;5025811;28;20034;-78
2023/08/03 02:12:37;;;;;;;5.18;3.95;;;21.30;93.60;;;;;;5024823;28;20026;-78
2023/08/03 02:15:06;;;;;;;6.30;4.20;;;21.30;93.60;;;;;;5024985;28;20073;-79
2023/08/03 02:17:33;;;;;;;4.63;4.18;;;21.30;93.70;;;;;;5023911;28;20029;-79
2023/08/03 02:19:59;;;;;;;4.38;3.95;;;21.20;93.70;;;;;;5008071;28;20116;-79
2023/08/03 02:22:24;;;;;;;5.15;4.10;;;21.20;93.80;;;;;;5025377;28;20029;-79
2023/08/03 02:24:50;;;;;;;4.20;3.78;;;21.20;93.80;;;;;;5023812;28;20033;-79
2023/08/03 02:27:16;;;;;;;4.47;4.03;;;21.20;93.90;;;;;;5024021;28;20049;-78
2023/08/03 02:29:41;;;;;;;5.60;3.83;;;21.20;94.00;;;;;;5025025;28;20030;-78
2023/08/03 02:32:07;;;;;;;4.80;3.83;;;21.20;94.10;;;;;;5007133;28;20072;-79
2023/08/03 02:34:33;;;;;;;4.63;3.92;;;21.20;94.10;;;;;;5025465;28;20025;-79
2023/08/03 02:36:58;;;;;;;5.43;4.10;;;21.20;94.10;;;;;;5023689;28;20033;-78
2023/08/03 02:39:24;;;;;;;6.57;3.95;;;21.20;94.20;;;;;;5025373;28;20498;-79
2023/08/03 02:41:52;;;;;;;4.03;3.45;;;21.20;94.20;;;;;;5023164;28;20117;-79
2023/08/03 02:44:18;;;;;;;3.90;3.50;;;21.20;94.20;;;;;;5023969;28;20026;-78
2023/08/03 02:46:44;;;;;;;4.60;3.88;;;21.20;94.20;;;;;;5026406;28;20029;-79
2023/08/03 02:49:09;;;;;;;4.30;3.65;;;21.20;94.20;;;;;;5024935;28;20026;-78
2023/08/03 02:51:35;;;;;;;4.38;3.67;;;21.20;94.30;;;;;;5008076;28;20028;-78
2023/08/03 02:54:00;;;;;;;4.80;3.78;;;21.20;94.30;;;;;;5024795;28;20363;-79
2023/08/03 02:56:26;;;;;;;4.80;3.97;;;21.20;94.20;;;;;;5025556;28;20110;-79
2023/08/03 02:58:52;;;;;;;4.10;3.70;;;21.20;94.30;;;;;;5025416;28;20030;-78
2023/08/03 03:01:19;;;;;;;3.67;3.35;;;21.20;94.30;;;;;;5024210;28;20038;-79
2023/08/03 03:03:45;;;;;;;4.03;3.63;;;21.20;94.30;;;;;;5007214;28;20021;-79
2023/08/03 03:06:10;;;;;;;4.40;3.47;;;21.20;94.30;;;;;;4988250;28;20030;-78
2023/08/03 03:08:36;;;;;;;3.25;2.95;;;21.20;94.30;;;;;;5005220;28;20132;-79
2023/08/03 03:11:02;;;;;;;3.88;3.28;;;21.30;94.30;;;;;;5004217;28;20038;-79
2023/08/03 03:13:27;;;;;;;5.18;3.45;;;21.30;94.40;;;;;;5002720;28;20041;-79
2023/08/03 03:15:53;;;;;;;3.70;3.35;;;21.30;94.30;;;;;;5004073;28;20030;-79
2023/08/03 03:18:19;;;;;;;3.80;3.40;;;21.40;94.30;;;;;;5004182;28;20482;-79
2023/08/03 03:20:44;;;;;;;3.63;3.33;;;21.40;94.20;;;;;;5003705;28;20035;-79
2023/08/03 03:23:10;;;;;;;3.85;3.40;;;21.50;94.20;;;;;;5002551;28;20438;-79
2023/08/03 03:25:35;;;;;;;3.50;3.20;;;21.50;94.00;;;;;;5002102;28;20443;-79
2023/08/03 03:28:04;;;;;;;3.47;3.17;;;21.60;94.00;;;;;;5003959;28;20070;-79
2023/08/03 03:30:31;;;;;;;4.30;3.58;;;21.70;93.90;;;;;;5003848;28;20529;-79
2023/08/03 03:32:56;;;;;;;4.32;3.40;;;21.80;93.80;;;;;;5003826;28;20158;-79
2023/08/03 03:35:22;;;;;;;3.63;3.33;;;21.90;93.90;;;;;;5002848;28;20026;-79
2023/08/03 03:37:48;;;;;;;3.65;3.30;;;22.00;94.00;;;;;;5003336;28;20061;-79
2023/08/03 03:40:14;;;;;;;4.53;3.42;;;22.10;93.90;;;;;;5003664;28;20043;-79
2023/08/03 03:42:40;;;;;;;4.82;3.65;;;22.20;93.90;;;;;;5004090;28;20038;-79
2023/08/03 03:45:06;;;;;;;4.25;3.72;;;22.40;93.90;;;;;;4986627;28;20029;-79
2023/08/03 03:47:32;;;;;;;6.10;4.28;;;22.50;93.90;;;;;;5002036;28;20022;-79
2023/08/03 03:49:58;;;;;;;7.95;4.10;;;22.70;93.10;;;;;;5002537;28;20034;-79
2023/08/03 03:52:24;;;;;;;4.88;4.40;;;22.80;92.70;;;;;;5001126;28;20065;-79
2023/08/03 03:54:49;;;;;;;6.35;4.85;;;23.00;92.20;;;;;;5002219;28;20041;-79
2023/08/03 03:57:15;;;;;;;6.78;5.57;;;23.10;91.50;;;;;;5000501;28;20045;-79
2023/08/03 03:59:41;;;;;;;6.13;5.53;;;23.10;90.90;;;;;;5000517;28;20120;-79
2023/08/03 04:02:06;;;;;;;7.00;5.60;;;23.10;90.60;;;;;;5003091;28;20056;-79
2023/08/03 04:04:32;;;;;;;6.13;5.50;;;23.10;90.60;;;;;;5002732;28;20026;-79
2023/08/03 04:06:58;;;;;;;7.47;5.82;;;23.10;90.40;;;;;;5001498;28;20027;-79
2023/08/03 04:09:23;;;;;;;7.40;6.05;;;23.10;90.10;;;;;;5001305;28;20028;-79
2023/08/03 04:11:49;;;;;;;6.30;5.43;;;23.10;90.00;;;;;;5003502;28;20055;-79
2023/08/03 04:14:15;;;;;;;6.28;5.68;;;23.00;89.90;;;;;;5001579;28;20459;-79
2023/08/03 04:16:40;;;;;;;7.38;6.45;;;22.80;89.80;;;;;;4984480;28;20541;-79
2023/08/03 04:19:06;;;;;;;6.57;5.97;;;22.80;90.00;;;;;;5000531;28;20150;-78
2023/08/03 04:21:32;;;;;;;6.63;5.88;;;22.70;90.10;;;;;;4983766;28;20040;-79
2023/08/03 04:23:57;;;;;;;7.38;6.10;;;22.70;90.30;;;;;;4982194;28;20398;-79
2023/08/03 04:26:23;;;;;;;7.15;6.45;;;22.60;90.40;;;;;;4999200;28;20033;-79
2023/08/03 04:28:48;;;;;;;6.68;5.97;;;22.50;90.40;;;;;;4998137;28;20030;-78
2023/08/03 04:31:14;;;;;;;7.45;6.38;;;22.40;90.50;;;;;;4997023;28;20038;-77
2023/08/03 04:33:40;;;;;;;6.60;6.00;;;22.30;90.60;;;;;;4993150;28;20045;-77
2023/08/03 04:36:06;;;;;;;7.07;6.38;;;22.30;90.90;;;;;;4994481;28;20110;-77
2023/08/03 04:38:31;;;;;;;7.10;6.38;;;22.20;91.20;;;;;;4993142;28;20113;-76
2023/08/03 04:41:00;;;;;;;7.70;6.75;;;22.10;91.50;;;;;;4994682;28;20049;-77
2023/08/03 04:43:27;;;;;;;6.97;6.28;;;22.10;91.80;;;;;;4975791;28;20030;-78
2023/08/03 04:45:53;;;;;;;7.10;6.40;;;22.10;91.90;;;;;;4991941;28;20030;-76
2023/08/03 04:48:18;;;;;;;7.07;6.38;;;22.10;92.00;;;;;;4992047;28;20022;-76
2023/08/03 04:50:44;;;;;;;7.18;6.47;;;22.10;92.10;;;;;;4991663;28;20029;-76
2023/08/03 04:53:09;;;;;;;6.68;6.07;;;22.10;92.20;;;;;;4993869;28;20483;-76
2023/08/03 04:55:36;;;;;;;7.15;6.45;;;22.10;92.20;;;;;;4994340;28;20467;-79
2023/08/03 04:58:02;;;;;;;6.95;6.25;;;22.20;92.30;;;;;;4995219;28;20022;-80
2023/08/03 05:00:28;;;;;;;7.40;6.70;;;22.20;92.30;;;;;;4977567;28;20498;-79
2023/08/03 05:02:54;;;;;;;6.65;6.00;;;22.10;92.20;;;;;;5002336;28;20052;-81
2023/08/03 05:05:19;;;;;;;6.57;5.97;;;22.10;92.10;;;;;;4998309;28;20030;-79
2023/08/03 05:07:45;;;;;;;7.25;6.55;;;22.10;92.30;;;;;;4999781;28;20390;-81
2023/08/03 05:10:11;;;;;;;6.55;5.95;;;22.10;92.30;;;;;;5002199;28;20088;-80
2023/08/03 05:12:39;;;;;;;6.88;6.18;;;22.10;92.40;;;;;;5002414;28;20041;-79
2023/08/03 05:15:05;;;;;;;6.97;6.28;;;22.10;92.40;;;;;;5004555;28;20051;-81
2023/08/03 05:17:31;;;;;;;6.10;5.50;;;22.00;92.60;;;;;;5013357;28;20042;-82
2023/08/03 05:19:56;;;;;;;7.63;6.82;;;22.00;92.70;;;;;;5014358;28;20092;-81
2023/08/03 05:22:22;;;;;;;7.03;6.32;;;22.00;92.70;;;;;;5013035;28;20045;-82
2023/08/03 05:24:48;;;;;;;6.90;6.20;;;22.00;92.80;;;;;;5013293;28;20022;-82
2023/08/03 05:27:14;;;;;;;7.03;5.70;;;22.00;92.80;;;;;;5014831;28;20053;-82
2023/08/03 05:29:43;;;;;;;6.90;6.13;;;22.00;92.90;;;;;;5019037;28;20045;-82
2023/08/03 05:32:08;;;;;;;7.65;6.95;;;22.00;93.00;;;;;;5017433;28;20054;-81
2023/08/03 05:34:34;;;;;;;7.82;6.55;;;22.00;93.10;;;;;;5017650;28;20049;-81
2023/08/03 05:37:00;;;;;;;7.00;6.32;;;22.00;93.20;;;;;;5018308;28;20022;-82
2023/08/03 05:39:26;;;;;;;7.80;7.00;;;22.00;93.20;;;;;;5018869;28;20026;-82
2023/08/03 05:41:52;;;;;;;8.27;6.85;;;22.00;93.30;;;;;;5022339;28;20018;-84
2023/08/03 05:44:17;;;;;;;7.57;6.88;;;21.90;93.40;;;;;;5023286;28;20025;-85
2023/08/03 05:46:44;;;;;;;7.38;6.68;;;21.90;93.40;;;;;;5022840;28;20033;-84
2023/08/03 05:49:11;;;;;;;7.57;6.88;;;21.90;93.40;;;;;;5021936;28;20018;-83
2023/08/03 05:51:39;;;;;;;8.05;7.25;;;21.90;93.40;;;;;;5021449;28;20049;-86
2023/08/03 05:54:05;;;;;;;8.95;8.15;;;21.90;93.40;;;;;;5022425;28;20041;-86
2023/08/03 05:56:34;;;;;;;8.35;7.55;;;21.80;93.50;;;;;;5039125;28;20086;-85
2023/08/03 05:59:02;;;;;;;7.47;6.78;;;21.80;93.70;;;;;;5023510;28;20037;-86
2023/08/03 06:01:28;;;;;;;7.88;7.15;;;21.80;93.80;;;;;;5022591;28;20057;-86
2023/08/03 06:03:53;;;;;;;8.10;6.68;;;21.80;93.70;;;;;;5022479;28;20014;-83
2023/08/03 06:06:20;;;;;;;8.52;7.60;;;21.80;93.60;;;;;;5004884;28;20116;-78
2023/08/03 06:08:56;;;;;;;8.40;7.60;;;21.80;93.50;;;;;;5015155;28;20145;-79
2023/08/03 06:11:22;;;;;;;8.57;7.78;;;21.80;93.30;;;;;;5003886;28;20038;-79
2023/08/03 06:13:48;;;;;;;8.40;7.60;;;21.70;93.40;;;;;;5021164;28;20753;-78
2023/08/03 06:16:14;;;;;;;8.30;7.30;;;21.80;93.30;;;;;;5008017;28;20053;-79
2023/08/03 06:18:48;;;;;;;7.85;7.05;;;21.70;93.30;;;;;;4988091;28;20596;-79
2023/08/03 06:21:15;;;;;;;8.60;7.70;;;21.80;93.20;;;;;;4987366;28;20037;-79
2023/08/03 06:23:44;;;;;;;9.05;8.15;;;21.70;93.40;;;;;;4992937;28;20053;-79
2023/08/03 06:26:15;;;;;;;8.00;7.20;;;21.70;93.40;;;;;;4997675;28;20433;-79
2023/08/03 06:28:41;;;;;;;8.27;7.47;;;21.80;93.40;;;;;;5008982;28;20026;-79
2023/08/03 06:31:14;;;;;;;8.90;7.82;;;21.80;93.30;;;;;;5000699;28;20433;-79
2023/08/03 06:33:40;;;;;;;9.18;8.25;;;21.80;93.20;;;;;;5002976;28;20438;-79
2023/08/03 06:36:10;;;;;;;8.90;8.10;;;21.80;93.40;;;;;;4995186;28;20026;-79
2023/08/03 06:38:37;;;;;;;9.05;8.18;;;21.80;93.30;;;;;;4991526;28;20104;-79
2023/08/03 06:41:02;;;;;;;9.50;8.50;;;21.80;93.30;;;;;;5000496;28;20142;-80
2023/08/03 06:43:30;;;;;;;9.13;8.23;;;21.90;93.40;;;;;;4983305;28;20157;-79
2023/08/03 06:45:56;;;;;;;9.85;8.85;;;21.90;93.20;;;;;;5002931;28;20060;-80
2023/08/03 06:48:22;;;;;;;8.73;7.93;;;21.90;93.20;;;;;;4999356;28;20053;-79
2023/08/03 06:50:48;;;;;;;9.88;8.88;;;21.90;93.20;;;;;;5003586;28;20061;-80
2023/08/03 06:53:14;;;;;;;9.88;8.88;;;21.90;93.40;;;;;;4996875;28;20058;-79
2023/08/03 06:55:40;;;;;;;9.50;8.60;;;21.90;93.20;;;;;;5004922;28;20088;-79
2023/08/03 06:58:05;;;;;;;9.40;8.50;;;21.90;93.30;;;;;;4999069;28;20029;-80
2023/08/03 07:00:31;;;;;;;10.45;9.43;;;21.90;93.20;;;;;;4978199;28;20030;-79
2023/08/03 07:02:59;;;;;;;9.82;8.82;;;21.90;93.20;;;;;;5005451;28;20537;-80
2023/08/03 07:05:25;;;;;;;9.43;8.48;;;21.90;93.50;;;;;;4998817;28;20042;-80
2023/08/03 07:07:50;;;;;;;9.55;8.27;;;21.90;93.20;;;;;;5001023;28;20440;-81
2023/08/03 07:10:16;;;;;;;9.05;8.15;;;22.00;93.20;;;;;;4988396;28;20394;-80
2023/08/03 07:12:42;;;;;;;8.38;7.53;;;22.00;93.20;;;;;;4996216;28;20028;-79
2023/08/03 07:15:08;;;;;;;8.35;7.55;;;22.00;93.10;;;;;;5002649;28;20018;-85
2023/08/03 07:17:34;;;;;;;8.27;7.47;;;22.10;92.90;;;;;;5007130;28;20033;-84
2023/08/03 07:19:59;;;;;;;10.57;7.30;;;22.10;92.90;;;;;;5005812;28;20026;-84
2023/08/03 07:22:25;;;;;;;8.07;7.28;;;22.10;92.90;;;;;;5006047;28;20034;-79
2023/08/03 07:24:51;;;;;;;7.75;7.05;;;22.20;92.80;;;;;;4990515;28;20030;-77
2023/08/03 07:27:17;;;;;;;8.10;7.30;;;22.20;92.60;;;;;;5010049;28;20034;-85
2023/08/03 07:29:43;;;;;;;7.85;7.05;;;22.20;92.50;;;;;;5000449;28;20037;-84
2023/08/03 07:32:11;;;;;;;8.02;7.22;;;22.30;92.50;;;;;;5008303;28;20060;-84
2023/08/03 07:34:37;;;;;;;8.20;7.40;;;22.30;92.50;;;;;;5013118;28;20029;-84
2023/08/03 07:37:03;;;;;;;7.95;7.18;;;22.30;92.40;;;;;;5009413;28;20026;-85
2023/08/03 07:39:29;;;;;;;7.95;7.15;;;22.40;92.80;;;;;;5036697;23;20049;-85
2023/08/03 07:41:56;;;;;;;8.45;7.35;;;22.50;92.50;;;;;;5021086;28;20045;-85
2023/08/03 07:44:22;;;;;;;8.63;7.38;;;22.50;92.30;;;;;;5026882;28;20029;-85
2023/08/03 07:46:47;;;;;;;8.95;8.05;;;22.60;92.10;;;;;;5021580;28;20026;-86
2023/08/03 07:49:13;;;;;;;9.25;7.82;;;22.60;91.90;;;;;;5021504;28;20140;-86
2023/08/03 07:51:40;;;;;;;8.85;7.95;;;22.70;91.60;;;;;;5020159;28;20033;-86
2023/08/03 07:54:06;;;;;;;8.57;7.80;;;22.70;91.40;;;;;;5016507;28;20643;-85
2023/08/03 07:56:32;;;;;;;8.48;7.57;;;22.70;91.20;;;;;;5015420;28;20029;-87
2023/08/03 07:59:00;;;;;;;7.97;6.93;;;22.70;91.20;;;;;;5022113;28;20067;-87
2023/08/03 08:01:26;;;;;;;7.78;6.97;;;22.70;91.30;;;;;;5019436;28;20136;-88
2023/08/03 08:03:52;;;;;;;8.60;7.65;;;22.80;91.70;;;;;;5016451;28;20029;-85
2023/08/03 08:06:19;;;;;;;8.80;7.90;;;22.90;91.50;;;;;;4994815;28;20373;-84
2023/08/03 08:08:46;;;;;;;8.48;7.57;;;23.10;91.30;;;;;;5019859;28;20548;-86
2023/08/03 08:11:15;;;;;;;8.60;7.80;;;23.10;91.00;;;;;;5001567;28;20032;-85
2023/08/03 08:13:42;;;;;;;7.80;7.07;;;23.20;90.90;;;;;;5014623;28;20506;-85
2023/08/03 08:16:10;;;;;;;7.85;7.13;;;23.30;90.70;;;;;;4998886;28;20037;-85
2023/08/03 08:18:36;;;;;;;7.60;6.90;;;23.40;90.50;;;;;;5018889;28;20033;-85
2023/08/03 08:21:05;;;;;;;8.50;7.60;;;23.50;90.00;;;;;;5018018;28;20045;-85
2023/08/03 08:23:31;;;;;;;8.38;7.55;;;23.60;89.20;;;;;;5018453;28;20056;-86
2023/08/03 08:25:56;;;;;;;8.57;7.78;;;23.60;88.90;;;;;;5021045;28;20029;-85
2023/08/03 08:28:22;;;;;;;7.85;7.05;;;23.70;88.60;;;;;;5008538;28;20030;-86
2023/08/03 08:30:49;;;;;;;8.55;7.75;;;23.70;88.10;;;;;;5024021;28;20028;-85
2023/08/03 08:33:16;;;;;;;8.02;7.22;;;23.70;88.00;;;;;;5005199;28;20117;-85
2023/08/03 08:35:42;;;;;;;7.75;6.95;;;23.80;88.10;;;;;;5025165;28;20051;-86
2023/08/03 08:38:16;;;;;;;8.07;7.38;;;23.90;87.80;;;;;;5025652;28;20060;-86
2023/08/03 08:40:43;;;;;;;8.35;7.47;;;24.00;87.50;;;;;;5017768;28;20041;-87
2023/08/03 08:43:08;;;;;;;8.27;7.50;;;24.00;87.00;;;;;;5022161;28;20022;-87
2023/08/03 08:45:35;;;;;;;8.48;7.68;;;24.10;87.00;;;;;;5005370;28;20021;-87
2023/08/03 08:48:02;;;;;;;7.88;7.18;;;24.10;86.60;;;;;;5019095;28;20036;-87
2023/08/03 08:50:28;;;;;;;7.78;7.03;;;24.20;86.30;;;;;;5014779;28;20326;-87
2023/08/03 08:52:55;;;;;;;7.35;6.65;;;24.20;86.30;;;;;;4998091;28;20474;-86
2023/08/03 08:55:23;;;;;;;7.50;6.80;;;24.30;86.20;;;;;;4999356;28;20030;-86
2023/08/03 08:57:53;;;;;;;8.45;7.50;;;24.40;86.00;;;;;;5024479;28;20030;-86
2023/08/03 09:00:20;;;;;;;7.90;6.93;;;24.50;85.70;;;;;;5023333;28;20029;-87
2023/08/03 09:02:46;;;;;;;8.38;7.57;;;24.50;85.10;;;;;;5025071;28;20029;-87
2023/08/03 09:05:16;;;;;;;7.13;6.43;;;24.60;84.50;;;;;;5023961;28;20025;-87
2023/08/03 09:07:42;;;;;;;8.53;7.77;;;24.60;84.40;;;;;;5021958;28;20044;-85
2023/08/03 09:10:09;;;;;;;8.98;8.07;;;24.60;84.50;;;;;;5026220;28;20378;-85
2023/08/03 09:12:39;;;;;;;8.10;7.30;;;24.60;84.40;;;;;;5016967;28;20036;-87
2023/08/03 09:15:06;;;;;;;8.70;7.85;;;24.70;84.10;;;;;;5004143;28;20026;-87
2023/08/03 09:17:32;;;;;;;7.35;6.65;;;24.80;83.90;;;;;;5024268;28;20122;-86
2023/08/03 09:19:57;;;;;;;7.05;6.35;;;24.80;83.70;;;;;;5010079;28;20065;-85
2023/08/03 09:22:25;;;;;;;7.85;7.05;;;24.90;83.30;;;;;;5027623;28;20114;-86
2023/08/03 09:25:00;;;;;;;7.25;6.55;;;24.90;82.70;;;;;;5022601;28;20057;-87
2023/08/03 09:27:26;;;;;;;7.53;6.82;;;25.00;82.60;;;;;;5004991;28;20026;-86
2023/08/03 09:30:01;;;;;;;7.38;6.68;;;25.00;82.60;;;;;;5020769;28;20033;-86
2023/08/03 09:32:36;;;;;;;7.03;6.30;;;25.00;82.50;;;;;;5025961;28;20352;-87
2023/08/03 09:35:02;;;;;;;7.72;7.00;;;25.00;82.30;;;;;;5010026;28;20026;-88
2023/08/03 09:37:36;;;;;;;8.45;7.70;;;25.10;82.30;;;;;;5007868;28;20036;-87
2023/08/03 09:40:05;;;;;;;7.88;7.07;;;25.20;82.20;;;;;;5023980;28;20073;-87
2023/08/03 09:42:31;;;;;;;7.90;7.13;;;25.10;82.00;;;;;;5007148;28;20513;-87
2023/08/03 09:45:01;;;;;;;6.88;6.18;;;25.10;81.50;;;;;;4998688;28;20394;-87
2023/08/03 09:47:27;;;;;;;7.75;7.05;;;25.10;81.50;;;;;;5018924;28;20108;-87
2023/08/03 09:49:54;;;;;;;7.63;6.93;;;25.00;81.60;;;;;;5008341;28;20022;-88
2023/08/03 09:52:26;;;;;;;7.68;6.97;;;25.00;81.40;;;;;;5022157;28;20117;-88
2023/08/03 09:55:13;;;;;;;7.05;6.35;;;24.80;81.60;;;;;;5003505;28;20037;-88
2023/08/03 09:57:42;;;;;;;8.32;7.28;;;24.80;81.70;;;;;;5004117;28;20454;-87
2023/08/03 10:00:08;;;;;;;8.30;7.50;;;24.80;82.10;;;;;;5019590;28;20033;-87
2023/08/03 10:03:09;;;;;;;9.20;8.25;;;24.80;82.50;;;;;;5021398;28;20030;-87
2023/08/03 10:05:45;;;;;;;;;;;24.80;82.50;;;;;;5000860;28;20041;-87
2023/08/03 10:08:22;;;;;;;7.97;7.10;;;24.70;82.60;;;;;;5002693;28;19913;-87
2023/08/03 10:10:51;;;;;;;8.18;7.38;;;24.70;82.60;;;;;;5001394;28;20037;-87
2023/08/03 10:13:17;;;;;;;8.07;7.32;;;24.60;82.70;;;;;;5011906;28;20121;-88
2023/08/03 10:15:42;;;;;;;7.70;7.00;;;24.60;82.60;;;;;;5006740;28;20038;-87
2023/08/03 10:18:08;;;;;;;8.45;7.65;;;24.60;82.50;;;;;;5016560;28;20029;-87
2023/08/03 10:20:39;;;;;;;8.88;8.07;;;24.60;82.70;;;;;;5022273;28;20033;-87
2023/08/03 10:23:11;;;;;;;9.40;8.50;;;24.50;82.70;;;;;;5028305;28;20022;-87
2023/08/03 10:25:55;;;;;;;9.43;8.52;;;24.50;82.70;;;;;;5026389;28;20069;-87
2023/08/03 10:28:38;;;;;;;8.50;7.70;;;24.50;82.60;;;;;;5014773;28;20022;-86
2023/08/03 10:31:14;;;;;;;9.48;8.30;;;24.50;82.90;;;;;;5022934;28;20029;-86
2023/08/03 10:33:46;;;;;;;10.98;8.48;;;24.40;83.10;;;;;;5018009;28;20576;-86
2023/08/03 10:36:38;;;;;;;8.93;8.13;;;24.40;83.00;;;;;;5030394;28;20026;-87
2023/08/03 10:39:16;;;;;;;8.13;7.32;;;24.30;83.00;;;;;;5016628;28;20064;-86
2023/08/03 10:41:49;;;;;;;8.55;7.75;;;24.30;83.30;;;;;;5025287;28;20025;-87
2023/08/03 10:44:14;;;;;;;8.02;7.22;;;24.30;83.30;;;;;;5024854;28;20300;-86
2023/08/03 10:46:47;;;;;;;7.22;6.60;;;24.30;83.30;;;;;;5004897;28;20072;-86
2023/08/03 10:49:19;;;;;;;7.47;6.68;;;24.30;83.20;;;;;;5018319;28;20021;-86
2023/08/03 10:51:47;;;;;;;7.85;7.15;;;24.30;83.10;;;;;;5023210;28;20651;-86
2023/08/03 10:54:14;;;;;;;7.35;6.65;;;24.30;83.20;;;;;;5008676;28;20468;-86
2023/08/03 10:56:39;;;;;;;7.20;6.50;;;24.30;83.30;;;;;;5025851;28;20030;-87
2023/08/03 10:59:05;;;;;;;8.15;7.45;;;24.30;83.30;;;;;;5025562;28;20052;-86
2023/08/03 11:01:32;;;;;;;8.32;6.82;;;24.20;82.90;;;;;;5027568;28;20079;-87
2023/08/03 11:04:00;;;;;;;8.50;7.70;;;24.20;83.00;;;;;;5024750;28;20033;-84
2023/08/03 11:06:29;;;;;;;7.82;7.10;;;24.20;83.20;;;;;;5028291;28;20060;-84
2023/08/03 11:08:55;;;;;;;8.48;7.68;;;24.10;83.10;;;;;;5019709;28;20037;-84
2023/08/03 11:11:32;;;;;;;7.75;7.10;;;24.10;83.30;;;;;;5042172;28;20057;-84
2023/08/03 11:13:58;;;;;;;7.03;6.38;;;24.10;83.20;;;;;;5010648;28;20128;-85
2023/08/03 11:16:23;;;;;;;7.50;6.80;;;24.10;83.40;;;;;;5023981;28;20830;-84
2023/08/03 11:18:49;;;;;;;7.35;6.65;;;24.10;83.40;;;;;;5027389;28;20220;-83
2023/08/03 11:21:15;;;;;;;7.05;6.40;;;24.10;83.60;;;;;;5031311;28;20033;-83
2023/08/03 11:23:41;;;;;;;6.68;5.97;;;24.10;83.50;;;;;;5023732;28;20033;-82
2023/08/03 11:26:10;;;;;;;7.47;6.78;;;24.10;83.60;;;;;;5026842;28;20021;-82
2023/08/03 11:28:43;;;;;;;6.97;6.30;;;24.20;83.50;;;;;;5029851;28;20120;-83
2023/08/03 11:31:20;;;;;;;6.63;6.03;;;24.20;83.30;;;;;;5021439;28;20026;-83
2023/08/03 11:33:52;;;;;;;6.70;6.10;;;24.20;83.10;;;;;;5026879;28;20080;-83
2023/08/03 11:36:18;;;;;;;7.55;6.38;;;24.20;83.10;;;;;;5024753;28;20393;-83
2023/08/03 11:38:44;;;;;;;7.50;6.80;;;24.20;83.20;;;;;;5027147;28;20068;-85
2023/08/03 11:41:16;;;;;;;7.32;6.63;;;24.20;82.90;;;;;;5011658;28;20021;-85
2023/08/03 11:43:42;;;;;;;7.68;6.97;;;24.20;82.70;;;;;;5011311;28;20022;-83
2023/08/03 11:46:08;;;;;;;7.53;6.82;;;24.20;82.80;;;;;;5014219;28;20036;-85
2023/08/03 11:48:33;;;;;;;7.38;6.68;;;24.20;82.70;;;;;;5041045;28;20048;-85
2023/08/03 11:50:59;;;;;;;7.90;7.10;;;24.20;82.60;;;;;;5028082;28;20394;-85
2023/08/03 11:53:26;;;;;;;7.47;6.78;;;24.20;82.60;;;;;;5026944;28;20044;-85
2023/08/03 11:55:52;;;;;;;6.72;6.13;;;24.20;82.60;;;;;;5025111;28;20029;-85
2023/08/03 11:58:25;;;;;;;7.40;6.70;;;24.20;82.70;;;;;;5002182;28;21267;-85
2023/08/03 12:01:00;;;;;;;7.55;6.85;;;24.20;82.50;;;;;;5024005;28;20029;-86
2023/08/03 12:03:38;;;;;;;6.88;6.18;;;24.20;82.70;;;;;;5022971;28;20029;-88
2023/08/03 12:06:08;;;;;;;7.40;6.70;;;24.20;82.60;;;;;;5009618;28;20075;-86
2023/08/03 12:08:45;;;;;;;7.65;6.95;;;24.20;82.90;;;;;;5028516;28;20025;-88
2023/08/03 12:11:15;;;;;;;7.28;6.60;;;24.20;82.70;;;;;;5010910;28;20037;-85
2023/08/03 12:13:41;;;;;;;7.05;6.40;;;24.20;82.90;;;;;;5023020;28;20159;-83
2023/08/03 12:16:06;;;;;;;7.38;6.68;;;24.20;83.00;;;;;;5005287;28;20033;-84
2023/08/03 12:18:32;;;;;;;7.00;6.40;;;24.20;83.00;;;;;;5018922;28;20034;-84
2023/08/03 12:20:58;;;;;;;6.78;6.18;;;24.20;83.10;;;;;;5006631;28;20033;-83
2023/08/03 12:23:24;;;;;;;7.88;6.85;;;24.20;83.00;;;;;;5007648;28;20032;-83
2023/08/03 12:25:51;;;;;;;7.70;6.90;;;24.20;83.10;;;;;;5012896;28;20040;-83
2023/08/03 12:28:17;;;;;;;7.95;7.25;;;24.20;83.20;;;;;;5016450;28;20025;-83
2023/08/03 12:30:43;;;;;;;7.88;7.07;;;24.20;83.30;;;;;;5024458;28;20025;-86
2023/08/03 12:33:09;;;;;;;6.90;6.07;;;24.20;83.40;;;;;;5007557;28;20123;-84
2023/08/03 12:35:35;;;;;;;7.50;6.38;;;24.20;83.20;;;;;;5026660;28;20071;-83
2023/08/03 12:38:01;;;;;;;7.53;6.75;;;24.20;83.40;;;;;;4996314;28;20482;-85
2023/08/03 12:40:27;;;;;;;9.07;8.18;;;24.20;83.40;;;;;;5028336;28;20516;-82
2023/08/03 12:42:54;;;;;;;8.88;8.05;;;24.20;83.50;;;;;;5000957;28;20049;-85
2023/08/03 12:45:20;;;;;;;9.52;8.63;;;24.20;83.80;;;;;;5012552;28;20604;-85
2023/08/03 12:47:45;;;;;;;8.90;8.10;;;24.20;83.40;;;;;;5028498;28;20065;-85